createdAt,value
2017-01-09T00:00:35.728Z,15.44
2017-01-09T00:01:44.694Z,15.41
2017-01-09T00:02:53.679Z,15.41
2017-01-09T00:04:02.660Z,15.26
2017-01-09T00:05:11.642Z,15.37
2017-01-09T00:06:20.615Z,15.31
2017-01-09T00:07:29.592Z,15.42
2017-01-09T00:08:38.571Z,15.33
2017-01-09T00:09:47.534Z,15.3
2017-01-09T00:10:56.514Z,15.13
2017-01-09T00:12:05.481Z,15.31
2017-01-09T00:13:14.464Z,15.23
2017-01-09T00:14:23.446Z,15.27
2017-01-09T00:15:32.420Z,15.09
2017-01-09T00:16:41.400Z,15.15
2017-01-09T00:17:50.378Z,15.15
2017-01-09T00:18:59.357Z,15.15
2017-01-09T00:20:08.336Z,15.15
2017-01-09T00:21:17.325Z,15.05
2017-01-09T00:22:26.288Z,15.04
2017-01-09T00:23:35.257Z,15.05
2017-01-09T00:24:44.338Z,14.87
2017-01-09T00:25:53.312Z,14.88
2017-01-09T00:27:02.311Z,14.87
2017-01-09T00:28:11.282Z,14.84
2017-01-09T00:29:20.251Z,14.86
2017-01-09T00:30:29.233Z,14.67
2017-01-09T00:31:38.201Z,14.75
2017-01-09T00:32:47.196Z,14.65
2017-01-09T00:33:56.161Z,14.65
2017-01-09T00:35:05.135Z,14.59
2017-01-09T00:36:14.099Z,14.56
2017-01-09T00:37:23.067Z,14.57
2017-01-09T00:38:32.043Z,14.53
2017-01-09T00:39:41.025Z,14.56
2017-01-09T00:40:50.003Z,14.57
2017-01-09T00:41:58.981Z,14.68
2017-01-09T00:43:07.946Z,14.65
2017-01-09T00:44:16.928Z,14.68
2017-01-09T00:45:25.904Z,14.63
2017-01-09T00:46:34.885Z,14.7
2017-01-09T00:47:43.857Z,14.7
2017-01-09T00:48:52.829Z,14.54
2017-01-09T00:50:01.806Z,14.6
2017-01-09T00:51:10.795Z,14.44
2017-01-09T00:52:19.777Z,14.26
2017-01-09T00:53:28.759Z,14.22
2017-01-09T00:54:37.718Z,14.24
2017-01-09T00:55:46.698Z,14.23
2017-01-09T00:56:55.655Z,14.2
2017-01-09T00:58:04.640Z,14.32
2017-01-09T00:59:13.621Z,14.38
2017-01-09T01:00:22.602Z,14.46
2017-01-09T01:01:31.573Z,14.34
2017-01-09T01:02:40.557Z,14.22
2017-01-09T01:03:49.545Z,14.14
2017-01-09T01:04:58.508Z,14.28
2017-01-09T01:06:07.492Z,14.3
2017-01-09T01:07:16.507Z,14.22
2017-01-09T01:08:25.511Z,14.06
2017-01-09T01:09:34.478Z,14.1
2017-01-09T01:10:43.458Z,14.13
2017-01-09T01:11:52.424Z,14.01
2017-01-09T01:13:01.396Z,13.99
2017-01-09T01:14:10.398Z,14.12
2017-01-09T01:15:19.385Z,14.06
2017-01-09T01:16:28.346Z,14.06
2017-01-09T01:17:37.329Z,13.99
2017-01-09T01:18:46.299Z,13.98
2017-01-09T01:19:55.281Z,13.97
2017-01-09T01:21:04.266Z,13.86
2017-01-09T01:22:13.246Z,13.8
2017-01-09T01:23:22.208Z,13.91
2017-01-09T01:24:31.186Z,13.79
2017-01-09T01:25:40.147Z,13.74
2017-01-09T01:26:49.127Z,13.79
2017-01-09T01:27:58.115Z,13.74
2017-01-09T01:29:07.088Z,13.95
2017-01-09T01:30:16.062Z,13.8
2017-01-09T01:31:25.083Z,13.69
2017-01-09T01:32:34.101Z,13.74
2017-01-09T01:33:43.081Z,13.69
2017-01-09T01:34:52.066Z,13.65
2017-01-09T01:36:01.040Z,13.64
2017-01-09T01:37:10.015Z,13.51
2017-01-09T01:38:18.999Z,13.64
2017-01-09T01:39:27.962Z,13.64
2017-01-09T01:40:36.940Z,13.77
2017-01-09T01:41:45.915Z,13.69
2017-01-09T01:42:54.888Z,13.69
2017-01-09T01:44:03.862Z,13.77
2017-01-09T01:45:12.835Z,13.59
2017-01-09T01:46:21.822Z,13.62
2017-01-09T01:47:30.789Z,13.54
2017-01-09T01:48:39.772Z,13.49
2017-01-09T01:49:48.730Z,13.49
2017-01-09T01:50:57.701Z,13.41
2017-01-09T01:52:06.680Z,13.44
2017-01-09T01:53:15.666Z,13.37
2017-01-09T01:54:24.644Z,13.39
2017-01-09T01:55:33.611Z,13.31
2017-01-09T01:56:42.575Z,13.41
2017-01-09T01:57:51.584Z,13.3
2017-01-09T01:59:00.560Z,13.32
2017-01-09T02:00:09.529Z,13.41
2017-01-09T02:01:18.488Z,13.31
2017-01-09T02:02:27.470Z,13.37
2017-01-09T02:03:36.438Z,13.32
2017-01-09T02:04:45.418Z,13.44
2017-01-09T02:05:54.392Z,13.32
2017-01-09T02:07:03.383Z,13.32
2017-01-09T02:08:12.367Z,13.25
2017-01-09T02:09:21.339Z,13.39
2017-01-09T02:10:30.311Z,13.3
2017-01-09T02:11:39.281Z,13.27
2017-01-09T02:12:48.269Z,13.2
2017-01-09T02:13:57.255Z,13.18
2017-01-09T02:15:06.233Z,13.28
2017-01-09T02:16:15.196Z,13.21
2017-01-09T02:17:24.214Z,13.2
2017-01-09T02:18:33.181Z,13.28
2017-01-09T02:19:42.161Z,13.28
2017-01-09T02:20:51.139Z,13.23
2017-01-09T02:22:00.115Z,13.1
2017-01-09T02:23:09.084Z,13.05
2017-01-09T02:24:18.055Z,13.1
2017-01-09T02:25:27.027Z,13.1
2017-01-09T02:26:36.012Z,13.17
2017-01-09T02:27:44.995Z,13.12
2017-01-09T02:28:53.964Z,13.12
2017-01-09T02:30:02.926Z,13.05
2017-01-09T02:31:11.903Z,13.05
2017-01-09T02:32:20.875Z,13.03
2017-01-09T02:33:29.870Z,13.05
2017-01-09T02:34:38.844Z,13.12
2017-01-09T02:35:47.812Z,12.94
2017-01-09T02:36:56.766Z,12.94
2017-01-09T02:38:05.739Z,13.05
2017-01-09T02:39:14.706Z,13.07
2017-01-09T02:40:23.678Z,12.98
2017-01-09T02:41:32.650Z,13.1
2017-01-09T02:42:41.619Z,12.98
2017-01-09T02:43:50.615Z,13.02
2017-01-09T02:44:59.587Z,12.91
2017-01-09T02:46:08.562Z,12.84
2017-01-09T02:47:17.535Z,12.94
2017-01-09T02:48:26.520Z,12.9
2017-01-09T02:49:35.490Z,12.84
2017-01-09T02:50:44.450Z,12.85
2017-01-09T02:51:53.441Z,12.8
2017-01-09T02:53:02.423Z,12.85
2017-01-09T02:54:11.380Z,12.78
2017-01-09T02:55:20.361Z,12.95
2017-01-09T02:56:29.340Z,12.95
2017-01-09T02:57:38.308Z,12.9
2017-01-09T02:58:47.282Z,12.84
2017-01-09T02:59:56.272Z,12.82
2017-01-09T03:01:05.273Z,12.8
2017-01-09T03:02:14.252Z,12.87
2017-01-09T03:03:23.212Z,12.76
2017-01-09T03:04:32.190Z,12.67
2017-01-09T03:05:41.154Z,12.73
2017-01-09T03:06:50.122Z,12.7
2017-01-09T03:07:59.176Z,12.65
2017-01-09T03:09:08.158Z,12.69
2017-01-09T03:10:17.126Z,12.67
2017-01-09T03:11:26.092Z,12.58
2017-01-09T03:12:35.081Z,12.7
2017-01-09T03:13:44.081Z,12.66
2017-01-09T03:14:53.046Z,12.69
2017-01-09T03:16:02.018Z,12.72
2017-01-09T03:17:11.020Z,12.51
2017-01-09T03:18:19.995Z,12.72
2017-01-09T03:19:28.964Z,12.7
2017-01-09T03:20:37.950Z,12.58
2017-01-09T03:21:46.925Z,12.52
2017-01-09T03:22:55.895Z,12.6
2017-01-09T03:24:04.867Z,12.51
2017-01-09T03:25:13.840Z,12.52
2017-01-09T03:26:22.816Z,12.49
2017-01-09T03:27:31.792Z,12.42
2017-01-09T03:28:40.766Z,12.29
2017-01-09T03:29:49.735Z,12.34
2017-01-09T03:30:58.717Z,12.26
2017-01-09T03:32:07.687Z,12.36
2017-01-09T03:33:16.661Z,12.36
2017-01-09T03:34:25.680Z,12.27
2017-01-09T03:35:34.686Z,12.3
2017-01-09T03:36:43.665Z,12.44
2017-01-09T03:37:52.630Z,12.54
2017-01-09T03:39:01.608Z,12.44
2017-01-09T03:40:10.567Z,12.42
2017-01-09T03:41:19.533Z,12.41
2017-01-09T03:42:28.529Z,12.34
2017-01-09T03:43:37.503Z,12.41
2017-01-09T03:44:46.471Z,12.45
2017-01-09T03:45:55.451Z,12.45
2017-01-09T03:47:04.472Z,12.45
2017-01-09T03:48:13.477Z,12.49
2017-01-09T03:49:22.458Z,12.52
2017-01-09T03:50:31.437Z,12.47
2017-01-09T03:51:40.396Z,12.51
2017-01-09T03:52:49.379Z,12.48
2017-01-09T03:53:58.349Z,12.47
2017-01-09T03:55:07.325Z,12.52
2017-01-09T03:56:16.296Z,12.45
2017-01-09T03:57:25.279Z,12.39
2017-01-09T03:58:34.258Z,12.32
2017-01-09T03:59:43.276Z,12.3
2017-01-09T04:00:52.239Z,12.34
2017-01-09T04:02:01.221Z,12.32
2017-01-09T04:03:10.191Z,12.32
2017-01-09T04:04:19.177Z,12.32
2017-01-09T04:05:28.158Z,12.29
2017-01-09T04:06:37.119Z,12.33
2017-01-09T04:07:46.101Z,12.33
2017-01-09T04:08:55.062Z,12.3
2017-01-09T04:10:04.038Z,12.29
2017-01-09T04:11:13.020Z,12.32
2017-01-09T04:12:21.987Z,12.32
2017-01-09T04:13:30.946Z,12.21
2017-01-09T04:14:39.918Z,12.14
2017-01-09T04:15:48.891Z,12.15
2017-01-09T04:16:57.854Z,12.11
2017-01-09T04:18:06.838Z,12.19
2017-01-09T04:19:15.810Z,12.19
2017-01-09T04:20:24.768Z,12.27
2017-01-09T04:21:33.749Z,12.21
2017-01-09T04:22:42.718Z,12.08
2017-01-09T04:23:51.700Z,12.11
2017-01-09T04:25:00.669Z,12.24
2017-01-09T04:26:10.046Z,12.12
2017-01-09T04:27:19.008Z,12.11
2017-01-09T04:28:27.978Z,12.11
2017-01-09T04:29:36.955Z,12.11
2017-01-09T04:30:45.933Z,12.27
2017-01-09T04:31:54.903Z,12.14
2017-01-09T04:33:03.868Z,12.15
2017-01-09T04:34:12.839Z,12.15
2017-01-09T04:35:21.806Z,12.24
2017-01-09T04:36:30.783Z,12.15
2017-01-09T04:37:39.753Z,12.07
2017-01-09T04:38:48.748Z,12.04
2017-01-09T04:39:57.956Z,12.05
2017-01-09T04:41:06.930Z,12.11
2017-01-09T04:42:15.895Z,12.07
2017-01-09T04:43:24.862Z,12.01
2017-01-09T04:44:33.825Z,12.24
2017-01-09T04:45:42.808Z,12.23
2017-01-09T04:46:51.791Z,12.12
2017-01-09T04:48:00.757Z,12.05
2017-01-09T04:49:09.740Z,12.05
2017-01-09T04:50:18.726Z,12
2017-01-09T04:51:27.680Z,12.04
2017-01-09T04:52:36.660Z,12.04
2017-01-09T04:53:45.617Z,12.04
2017-01-09T04:54:54.603Z,12.01
2017-01-09T04:56:03.569Z,12.05
2017-01-09T04:57:12.546Z,12.01
2017-01-09T04:58:21.529Z,11.89
2017-01-09T04:59:30.508Z,11.97
2017-01-09T05:00:39.471Z,11.93
2017-01-09T05:01:48.442Z,11.85
2017-01-09T05:02:57.422Z,11.9
2017-01-09T05:04:06.387Z,11.89
2017-01-09T05:05:15.363Z,11.88
2017-01-09T05:06:24.328Z,11.8
2017-01-09T05:07:33.307Z,12.09
2017-01-09T05:08:42.282Z,12.11
2017-01-09T05:09:51.252Z,11.96
2017-01-09T05:11:00.224Z,11.94
2017-01-09T05:12:09.207Z,11.86
2017-01-09T05:13:18.180Z,11.9
2017-01-09T05:14:27.146Z,11.88
2017-01-09T05:15:36.115Z,11.89
2017-01-09T05:16:45.095Z,11.88
2017-01-09T05:17:54.063Z,11.94
2017-01-09T05:19:03.041Z,11.85
2017-01-09T05:20:12.008Z,11.96
2017-01-09T05:21:21.033Z,11.94
2017-01-09T05:22:29.989Z,11.99
2017-01-09T05:23:38.962Z,12.01
2017-01-09T05:24:47.941Z,11.89
2017-01-09T05:25:56.914Z,11.82
2017-01-09T05:27:05.892Z,11.85
2017-01-09T05:28:14.891Z,11.88
2017-01-09T05:29:23.858Z,11.97
2017-01-09T05:30:32.845Z,11.93
2017-01-09T05:31:41.811Z,11.9
2017-01-09T05:32:50.792Z,11.85
2017-01-09T05:33:59.758Z,11.9
2017-01-09T05:35:08.724Z,11.89
2017-01-09T05:36:17.701Z,11.85
2017-01-09T05:37:27.294Z,11.77
2017-01-09T05:38:36.434Z,11.78
2017-01-09T05:39:45.404Z,11.85
2017-01-09T05:40:54.802Z,11.77
2017-01-09T05:42:03.788Z,11.89
2017-01-09T05:43:12.942Z,11.89
2017-01-09T05:44:21.922Z,11.89
2017-01-09T05:45:30.904Z,11.85
2017-01-09T05:46:39.975Z,11.82
2017-01-09T05:47:49.818Z,11.82
2017-01-09T05:48:58.818Z,11.9
2017-01-09T05:50:07.801Z,11.94
2017-01-09T05:51:16.771Z,11.85
2017-01-09T05:52:25.739Z,11.86
2017-01-09T05:53:34.715Z,11.88
2017-01-09T05:54:43.683Z,11.88
2017-01-09T05:55:52.659Z,11.81
2017-01-09T05:57:01.635Z,11.81
2017-01-09T05:58:10.614Z,11.93
2017-01-09T05:59:19.601Z,11.9
2017-01-09T06:00:28.573Z,11.78
2017-01-09T06:01:37.557Z,11.82
2017-01-09T06:02:46.537Z,11.77
2017-01-09T06:03:55.493Z,11.78
2017-01-09T06:05:04.467Z,12.07
2017-01-09T06:06:13.441Z,11.88
2017-01-09T06:07:22.416Z,11.89
2017-01-09T06:08:31.401Z,11.89
2017-01-09T06:09:40.368Z,11.75
2017-01-09T06:10:49.335Z,11.8
2017-01-09T06:11:58.314Z,11.78
2017-01-09T06:13:07.278Z,11.77
2017-01-09T06:14:16.268Z,11.71
2017-01-09T06:15:25.238Z,11.9
2017-01-09T06:16:34.202Z,12.36
2017-01-09T06:17:43.185Z,12.76
2017-01-09T06:18:52.159Z,13.18
2017-01-09T06:20:01.131Z,13.47
2017-01-09T06:21:10.107Z,13.51
2017-01-09T06:22:19.077Z,13.54
2017-01-09T06:23:28.043Z,13.51
2017-01-09T06:24:37.025Z,13.36
2017-01-09T06:25:46.011Z,13.51
2017-01-09T06:26:54.983Z,13.59
2017-01-09T06:28:03.959Z,13.83
2017-01-09T06:29:12.944Z,13.81
2017-01-09T06:30:21.918Z,14.01
2017-01-09T06:31:30.886Z,14.01
2017-01-09T06:32:39.868Z,14.17
2017-01-09T06:33:48.844Z,14.2
2017-01-09T06:34:57.817Z,14.2
2017-01-09T06:36:06.795Z,14.28
2017-01-09T06:37:15.752Z,14.41
2017-01-09T06:38:24.730Z,14.44
2017-01-09T06:39:33.712Z,14.49
2017-01-09T06:40:42.697Z,14.57
2017-01-09T06:41:51.677Z,14.63
2017-01-09T06:43:00.658Z,14.57
2017-01-09T06:44:09.613Z,14.63
2017-01-09T06:45:18.593Z,14.62
2017-01-09T06:46:27.566Z,14.8
2017-01-09T06:47:36.550Z,14.8
2017-01-09T06:48:45.523Z,14.91
2017-01-09T06:49:54.496Z,14.86
2017-01-09T06:51:03.474Z,15.05
2017-01-09T06:52:12.439Z,15.11
2017-01-09T06:53:21.419Z,15.19
2017-01-09T06:54:30.387Z,15.13
2017-01-09T06:55:39.355Z,15.19
2017-01-09T06:56:48.333Z,15.28
2017-01-09T06:57:57.307Z,15.31
2017-01-09T06:59:06.292Z,15.36
2017-01-09T07:00:15.301Z,15.36
2017-01-09T07:01:24.265Z,15.38
2017-01-09T07:02:33.257Z,15.46
2017-01-09T07:03:42.230Z,15.51
2017-01-09T07:04:51.194Z,15.59
2017-01-09T07:06:00.157Z,15.52
2017-01-09T07:07:09.138Z,15.66
2017-01-09T07:08:18.114Z,15.69
2017-01-09T07:09:27.097Z,15.67
2017-01-09T07:10:36.062Z,15.66
2017-01-09T07:11:45.045Z,15.76
2017-01-09T07:12:54.011Z,15.78
2017-01-09T07:14:02.989Z,15.79
2017-01-09T07:15:11.974Z,15.82
2017-01-09T07:16:20.944Z,15.89
2017-01-09T07:17:29.925Z,15.85
2017-01-09T07:18:38.937Z,15.81
2017-01-09T07:19:47.995Z,15.89
2017-01-09T07:20:57.306Z,15.97
2017-01-09T07:22:06.278Z,15.88
2017-01-09T07:23:15.369Z,15.84
2017-01-09T07:24:24.688Z,15.91
2017-01-09T07:25:33.695Z,15.97
2017-01-09T07:26:42.674Z,15.99
2017-01-09T07:27:51.684Z,16.04
2017-01-09T07:29:00.659Z,16
2017-01-09T07:30:10.844Z,16.04
2017-01-09T07:31:21.856Z,16
2017-01-09T07:32:31.583Z,16.04
2017-01-09T07:33:42.539Z,16.07
2017-01-09T07:34:51.517Z,16.1
2017-01-09T07:36:00.499Z,16.14
2017-01-09T07:37:10.487Z,16.09
2017-01-09T07:38:19.463Z,16.22
2017-01-09T07:39:28.429Z,16.11
2017-01-09T07:40:37.462Z,16.23
2017-01-09T07:41:46.475Z,16.15
2017-01-09T07:42:55.543Z,16.17
2017-01-09T07:44:04.530Z,16.27
2017-01-09T07:45:13.504Z,16.2
2017-01-09T07:46:22.484Z,16.27
2017-01-09T07:47:31.454Z,16.23
2017-01-09T07:48:40.437Z,16.22
2017-01-09T07:49:49.404Z,16.17
2017-01-09T07:50:58.380Z,16.29
2017-01-09T07:52:07.364Z,16.3
2017-01-09T07:53:16.359Z,16.4
2017-01-09T07:54:25.370Z,16.42
2017-01-09T07:55:34.441Z,16.45
2017-01-09T07:56:47.597Z,16.45
2017-01-09T07:57:56.592Z,16.5
2017-01-09T07:59:05.574Z,16.48
2017-01-09T08:00:14.561Z,16.59
2017-01-09T08:01:24.336Z,16.77
2017-01-09T08:02:33.949Z,17.14
2017-01-09T08:03:42.934Z,17.3
2017-01-09T08:04:51.941Z,17.5
2017-01-09T08:06:00.922Z,17.71
2017-01-09T08:07:09.890Z,17.76
2017-01-09T08:08:18.858Z,17.86
2017-01-09T08:09:27.848Z,18.02
2017-01-09T08:10:36.819Z,18.04
2017-01-09T08:11:47.304Z,18.25
2017-01-09T08:12:56.288Z,18.29
2017-01-09T08:14:05.249Z,18.39
2017-01-09T08:15:14.237Z,18.54
2017-01-09T08:16:23.324Z,18.64
2017-01-09T08:17:34.499Z,18.79
2017-01-09T08:18:44.097Z,19.09
2017-01-09T08:19:54.160Z,19.21
2017-01-09T08:21:03.202Z,19.3
2017-01-09T08:22:12.187Z,19.32
2017-01-09T08:23:21.176Z,19.4
2017-01-09T08:24:30.171Z,19.32
2017-01-09T08:25:39.161Z,19.06
2017-01-09T08:26:48.129Z,18.72
2017-01-09T08:27:57.107Z,18.44
2017-01-09T08:29:06.088Z,18.29
2017-01-09T08:30:15.133Z,18.25
2017-01-09T08:31:24.121Z,18.1
2017-01-09T08:32:33.086Z,18.22
2017-01-09T08:33:42.068Z,18.14
2017-01-09T08:34:51.037Z,18.25
2017-01-09T08:36:00.065Z,18.28
2017-01-09T08:37:09.038Z,18.14
2017-01-09T08:38:18.022Z,18.03
2017-01-09T08:39:26.999Z,17.82
2017-01-09T08:40:35.992Z,17.77
2017-01-09T08:41:44.972Z,17.53
2017-01-09T08:42:53.951Z,17.45
2017-01-09T08:44:02.972Z,17.14
2017-01-09T08:45:11.944Z,17.13
2017-01-09T08:46:20.920Z,17.05
2017-01-09T08:47:29.932Z,17
2017-01-09T08:48:38.905Z,16.9
2017-01-09T08:49:47.891Z,16.89
2017-01-09T08:50:56.869Z,16.9
2017-01-09T08:52:05.841Z,16.9
2017-01-09T08:53:14.866Z,16.82
2017-01-09T08:54:23.877Z,16.66
2017-01-09T08:55:32.845Z,16.58
2017-01-09T08:56:41.844Z,16.47
2017-01-09T08:57:50.818Z,16.45
2017-01-09T08:58:59.788Z,16.38
2017-01-09T09:00:08.771Z,16.37
2017-01-09T09:01:17.759Z,16.26
2017-01-09T09:02:26.737Z,16.32
2017-01-09T09:03:35.702Z,16.26
2017-01-09T09:04:44.685Z,16.1
2017-01-09T09:05:53.667Z,16.17
2017-01-09T09:07:02.639Z,16.15
2017-01-09T09:08:11.612Z,16.1
2017-01-09T09:09:20.618Z,16.03
2017-01-09T09:10:29.596Z,15.96
2017-01-09T09:11:38.585Z,15.88
2017-01-09T09:12:47.573Z,15.86
2017-01-09T09:13:56.543Z,15.88
2017-01-09T09:15:05.511Z,15.79
2017-01-09T09:16:14.504Z,15.84
2017-01-09T09:17:23.481Z,15.78
2017-01-09T09:18:32.474Z,15.69
2017-01-09T09:19:41.448Z,15.52
2017-01-09T09:20:50.418Z,15.46
2017-01-09T09:21:59.389Z,15.38
2017-01-09T09:23:08.373Z,15.28
2017-01-09T09:24:17.344Z,15.37
2017-01-09T09:25:26.330Z,15.3
2017-01-09T09:26:35.301Z,15.31
2017-01-09T09:27:44.265Z,15.37
2017-01-09T09:28:53.243Z,15.26
2017-01-09T09:30:02.215Z,15.23
2017-01-09T09:31:11.206Z,15.13
2017-01-09T09:32:20.202Z,15.26
2017-01-09T09:33:29.173Z,15.28
2017-01-09T09:34:38.149Z,15.26
2017-01-09T09:35:47.125Z,15.24
2017-01-09T09:36:56.104Z,15.11
2017-01-09T09:38:05.070Z,15.04
2017-01-09T09:39:14.051Z,15.13
2017-01-09T09:40:23.017Z,15.15
2017-01-09T09:41:31.997Z,14.94
2017-01-09T09:42:40.988Z,14.75
2017-01-09T09:43:49.948Z,14.86
2017-01-09T09:44:58.909Z,14.79
2017-01-09T09:46:07.893Z,14.9
2017-01-09T09:47:16.870Z,14.84
2017-01-09T09:48:25.840Z,14.86
2017-01-09T09:49:34.819Z,14.67
2017-01-09T09:50:43.793Z,14.65
2017-01-09T09:51:52.752Z,14.68
2017-01-09T09:53:01.744Z,14.56
2017-01-09T09:54:10.723Z,14.59
2017-01-09T09:55:19.715Z,14.59
2017-01-09T09:56:28.692Z,14.68
2017-01-09T09:57:37.692Z,14.65
2017-01-09T09:58:46.667Z,14.65
2017-01-09T09:59:55.646Z,14.6
2017-01-09T10:01:04.609Z,14.41
2017-01-09T10:02:13.585Z,14.62
2017-01-09T10:03:22.570Z,14.56
2017-01-09T10:04:31.549Z,14.42
2017-01-09T10:05:40.516Z,14.41
2017-01-09T10:06:49.501Z,14.31
2017-01-09T10:07:58.465Z,14.41
2017-01-09T10:09:07.454Z,14.38
2017-01-09T10:10:16.424Z,14.3
2017-01-09T10:11:25.395Z,14.3
2017-01-09T10:12:34.368Z,14.26
2017-01-09T10:13:43.340Z,14.24
2017-01-09T10:14:52.729Z,14.28
2017-01-09T10:16:01.700Z,14.23
2017-01-09T10:17:10.682Z,14.39
2017-01-09T10:18:19.650Z,14.59
2017-01-09T10:19:28.633Z,15.36
2017-01-09T10:20:37.610Z,16.17
2017-01-09T10:21:46.583Z,16.53
2017-01-09T10:22:55.564Z,16.92
2017-01-09T10:24:04.546Z,17.33
2017-01-09T10:25:13.526Z,17.62
2017-01-09T10:26:22.498Z,17.76
2017-01-09T10:27:31.477Z,17.95
2017-01-09T10:28:40.456Z,17.94
2017-01-09T10:29:49.421Z,18.04
2017-01-09T10:30:58.393Z,18.16
2017-01-09T10:32:07.803Z,18.26
2017-01-09T10:33:16.777Z,18.4
2017-01-09T10:34:25.758Z,18.46
2017-01-09T10:35:34.729Z,18.57
2017-01-09T10:36:43.705Z,18.8
2017-01-09T10:37:52.681Z,18.91
2017-01-09T10:39:01.652Z,18.83
2017-01-09T10:40:10.646Z,18.95
2017-01-09T10:41:19.618Z,18.95
2017-01-09T10:42:28.637Z,18.69
2017-01-09T10:43:37.785Z,18.47
2017-01-09T10:44:46.771Z,18.31
2017-01-09T10:45:55.750Z,18.17
2017-01-09T10:47:04.733Z,18.09
2017-01-09T10:48:13.723Z,18.16
2017-01-09T10:49:22.825Z,18.16
2017-01-09T10:50:31.812Z,18.17
2017-01-09T10:51:40.907Z,18.07
2017-01-09T10:52:49.893Z,18.14
2017-01-09T10:53:58.859Z,18.17
2017-01-09T10:55:07.840Z,18.19
2017-01-09T10:56:16.823Z,18.28
2017-01-09T10:57:25.797Z,18.32
2017-01-09T10:58:34.765Z,18.31
2017-01-09T10:59:43.737Z,18.34
2017-01-09T11:00:52.703Z,18.32
2017-01-09T11:02:01.684Z,18.4
2017-01-09T11:03:10.652Z,18.29
2017-01-09T11:04:19.643Z,18.28
2017-01-09T11:05:28.603Z,18.29
2017-01-09T11:06:37.587Z,18.39
2017-01-09T11:07:46.556Z,18.39
2017-01-09T11:08:55.540Z,18.35
2017-01-09T11:10:04.546Z,18.34
2017-01-09T11:11:13.542Z,18.34
2017-01-09T11:12:22.523Z,18.47
2017-01-09T11:13:31.497Z,18.4
2017-01-09T11:14:40.464Z,18.42
2017-01-09T11:15:49.474Z,18.4
2017-01-09T11:16:58.461Z,18.49
2017-01-09T11:18:07.427Z,18.43
2017-01-09T11:19:16.396Z,18.49
2017-01-09T11:20:25.386Z,18.47
2017-01-09T11:21:34.359Z,18.5
2017-01-09T11:22:43.342Z,18.5
2017-01-09T11:23:52.317Z,18.57
2017-01-09T11:25:01.291Z,18.54
2017-01-09T11:26:10.277Z,18.59
2017-01-09T11:27:19.676Z,18.57
2017-01-09T11:28:28.648Z,18.57
2017-01-09T11:29:37.630Z,18.61
2017-01-09T11:30:46.598Z,18.66
2017-01-09T11:31:55.591Z,18.58
2017-01-09T11:33:04.571Z,18.71
2017-01-09T11:34:13.549Z,18.69
2017-01-09T11:35:22.544Z,18.71
2017-01-09T11:36:31.533Z,18.79
2017-01-09T11:37:40.516Z,18.79
2017-01-09T11:38:49.503Z,18.71
2017-01-09T11:39:58.514Z,18.81
2017-01-09T11:41:07.485Z,18.74
2017-01-09T11:42:16.457Z,18.76
2017-01-09T11:43:25.447Z,18.76
2017-01-09T11:44:34.418Z,18.68
2017-01-09T11:45:43.410Z,18.79
2017-01-09T11:46:52.380Z,18.8
2017-01-09T11:48:01.360Z,18.83
2017-01-09T11:49:10.324Z,18.77
2017-01-09T11:50:19.303Z,18.86
2017-01-09T11:51:29.082Z,18.79
2017-01-09T11:52:38.319Z,18.77
2017-01-09T11:53:47.299Z,18.77
2017-01-09T11:54:56.269Z,18.79
2017-01-09T11:56:05.236Z,18.95
2017-01-09T11:57:14.236Z,18.89
2017-01-09T11:58:23.203Z,18.94
2017-01-09T11:59:32.189Z,18.91
2017-01-09T12:00:41.164Z,18.9
2017-01-09T12:01:50.136Z,18.9
2017-01-09T12:02:59.113Z,18.97
2017-01-09T12:04:08.089Z,18.98
2017-01-09T12:05:17.089Z,18.98
2017-01-09T12:06:27.340Z,18.97
2017-01-09T12:07:36.321Z,19.06
2017-01-09T12:08:45.728Z,19.06
2017-01-09T12:09:54.702Z,19.2
2017-01-09T12:11:03.683Z,19.1
2017-01-09T12:12:12.660Z,19.18
2017-01-09T12:13:21.636Z,19.2
2017-01-09T12:14:30.610Z,19.2
2017-01-09T12:15:39.592Z,19.2
2017-01-09T12:16:48.560Z,19.2
2017-01-09T12:17:57.538Z,19.28
2017-01-09T12:19:06.527Z,19.25
2017-01-09T12:20:15.489Z,19.3
2017-01-09T12:21:25.978Z,19.36
2017-01-09T12:22:34.951Z,19.3
2017-01-09T12:23:43.919Z,19.27
2017-01-09T12:24:52.905Z,19.24
2017-01-09T12:26:01.881Z,19.33
2017-01-09T12:27:10.859Z,19.3
2017-01-09T12:28:19.839Z,19.32
2017-01-09T12:29:28.852Z,19.3
2017-01-09T12:30:37.838Z,19.24
2017-01-09T12:31:46.829Z,19.33
2017-01-09T12:32:55.808Z,19.24
2017-01-09T12:34:04.790Z,19.39
2017-01-09T12:35:13.773Z,19.36
2017-01-09T12:36:22.777Z,19.43
2017-01-09T12:37:31.765Z,19.43
2017-01-09T12:38:40.742Z,19.43
2017-01-09T12:39:49.752Z,19.45
2017-01-09T12:40:59.842Z,19.53
2017-01-09T12:42:09.005Z,19.51
2017-01-09T12:43:18.156Z,19.53
2017-01-09T12:44:27.124Z,19.6
2017-01-09T12:45:36.107Z,19.6
2017-01-09T12:46:45.088Z,19.57
2017-01-09T12:47:54.103Z,19.61
2017-01-09T12:49:03.083Z,19.65
2017-01-09T12:50:12.078Z,19.67
2017-01-09T12:51:21.055Z,19.61
2017-01-09T12:52:30.037Z,19.62
2017-01-09T12:53:39.031Z,19.67
2017-01-09T12:54:48.018Z,19.57
2017-01-09T12:55:56.982Z,19.62
2017-01-09T12:57:05.966Z,19.7
2017-01-09T12:58:14.932Z,19.64
2017-01-09T12:59:23.978Z,19.67
2017-01-09T13:00:32.966Z,19.69
2017-01-09T13:01:41.945Z,19.75
2017-01-09T13:02:50.966Z,19.77
2017-01-09T13:03:59.979Z,19.72
2017-01-09T13:05:08.995Z,19.67
2017-01-09T13:06:18.018Z,19.77
2017-01-09T13:07:27.009Z,19.8
2017-01-09T13:08:35.988Z,19.79
2017-01-09T13:09:45.009Z,19.9
2017-01-09T13:10:53.999Z,19.91
2017-01-09T13:12:02.976Z,19.88
2017-01-09T13:13:11.968Z,19.83
2017-01-09T13:14:20.963Z,19.87
2017-01-09T13:15:29.939Z,19.97
2017-01-09T13:16:38.925Z,19.94
2017-01-09T13:17:47.912Z,19.9
2017-01-09T13:18:56.891Z,19.87
2017-01-09T13:20:05.866Z,19.91
2017-01-09T13:21:14.845Z,19.9
2017-01-09T13:22:23.827Z,19.92
2017-01-09T13:23:32.814Z,19.91
2017-01-09T13:24:41.858Z,19.87
2017-01-09T13:25:50.837Z,19.9
2017-01-09T13:26:59.822Z,20
2017-01-09T13:28:08.812Z,19.92
2017-01-09T13:29:17.791Z,19.95
2017-01-09T13:30:26.772Z,19.91
2017-01-09T13:31:35.743Z,19.87
2017-01-09T13:32:44.707Z,19.97
2017-01-09T13:33:53.699Z,19.91
2017-01-09T13:35:02.667Z,19.9
2017-01-09T13:36:11.657Z,19.9
2017-01-09T13:37:20.657Z,20.04
2017-01-09T13:38:29.636Z,19.92
2017-01-09T13:39:38.617Z,19.97
2017-01-09T13:40:47.598Z,19.94
2017-01-09T13:41:56.570Z,19.92
2017-01-09T13:43:05.567Z,20.01
2017-01-09T13:44:14.544Z,20
2017-01-09T13:45:23.527Z,19.98
2017-01-09T13:46:32.507Z,20.01
2017-01-09T13:47:41.505Z,20
2017-01-09T13:48:50.476Z,19.94
2017-01-09T13:49:59.456Z,19.97
2017-01-09T13:51:08.436Z,19.98
2017-01-09T13:52:17.416Z,20.06
2017-01-09T13:53:26.388Z,20.07
2017-01-09T13:54:35.362Z,20.02
2017-01-09T13:55:44.350Z,20
2017-01-09T13:56:53.315Z,20.04
2017-01-09T13:58:02.296Z,20.04
2017-01-09T13:59:11.272Z,20.07
2017-01-09T14:00:20.245Z,20.07
2017-01-09T14:01:29.222Z,20.1
2017-01-09T14:02:38.201Z,20.12
2017-01-09T14:03:47.178Z,20.09
2017-01-09T14:04:56.159Z,19.97
2017-01-09T14:06:05.147Z,20.07
2017-01-09T14:07:14.119Z,20.02
2017-01-09T14:08:23.110Z,20.1
2017-01-09T14:09:32.101Z,20.07
2017-01-09T14:10:41.068Z,20.17
2017-01-09T14:11:50.180Z,20.16
2017-01-09T14:12:59.209Z,20.19
2017-01-09T14:14:08.879Z,20.19
2017-01-09T14:15:19.927Z,20.1
2017-01-09T14:16:28.947Z,20.22
2017-01-09T14:17:37.945Z,20.24
2017-01-09T14:18:46.921Z,20.3
2017-01-09T14:19:55.895Z,20.27
2017-01-09T14:21:04.859Z,20.32
2017-01-09T14:22:13.842Z,20.25
2017-01-09T14:23:22.835Z,20.25
2017-01-09T14:24:32.257Z,20.3
2017-01-09T14:25:41.233Z,20.25
2017-01-09T14:26:50.214Z,20.28
2017-01-09T14:27:59.186Z,20.2
2017-01-09T14:29:08.182Z,20.22
2017-01-09T14:30:17.160Z,20.3
2017-01-09T14:31:26.143Z,20.15
2017-01-09T14:32:35.121Z,20.12
2017-01-09T14:33:44.116Z,20.15
2017-01-09T14:34:53.080Z,20.22
2017-01-09T14:36:02.065Z,20.2
2017-01-09T14:37:11.043Z,20.24
2017-01-09T14:38:20.020Z,20.25
2017-01-09T14:39:28.991Z,20.19
2017-01-09T14:40:37.978Z,20.24
2017-01-09T14:41:46.941Z,20.2
2017-01-09T14:42:55.929Z,20.28
2017-01-09T14:44:04.928Z,20.3
2017-01-09T14:45:13.915Z,20.3
2017-01-09T14:46:22.882Z,20.35
2017-01-09T14:47:31.871Z,20.3
2017-01-09T14:48:40.844Z,20.31
2017-01-09T14:49:49.929Z,20.35
2017-01-09T14:50:58.906Z,20.27
2017-01-09T14:52:08.299Z,20.41
2017-01-09T14:53:17.274Z,20.38